Tiempo atmosférico en la estación meteorológica de Ribadeo, Lugo (43 m.)



Fecha
DESCASC
Temp. máxima en grados centígrados (hora)
DESCASC
Temp. mínima en grados centígrados (hora)
DESCASC
Temp. media en grados centígrados
DESCASC
Racha de viento máxima en m/sg (hora)
DESCASC
Velocidad máxima media en intervalos de 10 minutos(hora)
DESCASC
Precipitaciones diarias en mm
DESCASC
Precipitaciones de 00:00 a 06:00 en mm
DESCASC
Precipitaciones de 06:00 a 12:00 en mm
DESCASC
Precipitaciones de 12:00 a 18:00 en mm
DESCASC
Precipitaciones de 18:00 a 24:00 en mm
DESCASC
07-08-2020 24.1 (16:00) 18.8 (23:59) 21.4 7.22 (14:40) 3.89 (14:50) 0 0 0 0 0
06-08-2020 24.2 (16:00) 16.8 (03:30) 20.5 4.72 (13:40) 2.78 (14:00) 0 0 0 0 0
05-08-2020 23.1 (14:40) 15.3 (07:30) 19.2 6.11 (14:50) 3.61 (13:30) 0 0 0 0 0
04-08-2020 23.2 (14:40) 16.9 (07:50) 20.1 7.22 (17:50) 4.17 (17:50) 1.6 1.6 0 0 0
03-08-2020 22.6 (16:00) 14.5 (06:50) 18.6 5.83 (09:50) 3.33 (08:50) 0.2 0 0 0 0.2
02-08-2020 22.2 (14:00) 15.4 (00:00) 18.8 6.39 (12:10) 3.89 (12:10) 0 0 0 0 0
01-08-2020 21.8 (14:50) 16.9 (00:00) 19.3 5.28 (17:00) 3.89 (17:20) 0.4 0 0.4 0 0
31-07-2020 22.7 (13:20) 17.7 (01:10) 20.2 6.94 (04:00) 4.17 (03:40) 0 0 0 0 0
30-07-2020 26.3 (15:50) 17.8 (00:00) 22 8.33 (16:20) 4.44 (16:40) 0 0 0 0 0
29-07-2020 20.7 (17:00) 17.6 (00:00) 19.2 11.11 (15:50) 6.94 (11:20) 0 0 0 0 0
28-07-2020 20 (00:00) 17.7 (00:00) 18.9 8.89 (19:30) 5.28 (19:40) 3 1.2 0.6 1.2 0
27-07-2020 27 (12:20) 15.5 (00:00) 21.3 6.11 (19:30) 3.89 (19:30) 0 0 0 0 0
26-07-2020 22.9 (17:10) 17 (00:00) 19.9 8.33 (16:50) 5.28 (16:20) 0 0 0 0 0
25-07-2020 23.8 (15:50) 14.8 (00:00) 19.3 5.83 (16:20) 3.61 (16:00) 0 0 0 0 0
24-07-2020 22.5 (14:50) 15.7 (00:00) 19.1 5.83 (15:20) 3.61 (17:40) 0 0 0 0 0
23-07-2020 23.2 (16:10) 17.6 (00:00) 20.4 5.28 (16:30) 3.61 (16:40) 0 0 0 0 0
22-07-2020 23.3 (14:00) 17.4 (00:00) 20.3 5.56 (14:50) 3.61 (15:00) 0 0 0 0 0
21-07-2020 20.9 (14:40) 17.1 (00:00) 19 7.78 (13:00) 4.72 (13:00) 0 0 0 0 0
20-07-2020 20 (15:40) 17.4 (00:00) 18.7 8.33 (23:00) 3.89 (04:40) 0 0 0 0 0
19-07-2020 21.4 (16:40) 17.6 (00:00) 19.5 6.94 (16:50) 4.17 (16:40) 0.4 0 0.4 0 0
18-07-2020 22.2 (13:20) 14.1 (00:00) 18.2 8.33 (16:30) 4.72 (16:10) 0 0 0 0 0
17-07-2020 21.8 (15:30) 16.1 (00:00) 18.9 11.94 (16:20) 7.22 (13:10) 0 0 0 0 0
16-07-2020 21.4 (15:10) 15.6 (00:00) 18.5 9.17 (13:50) 6.11 (14:30) 0 0 0 0 0
15-07-2020 20 (16:00) 15.9 (00:00) 17.9 8.33 (03:30) 4.72 (15:40) 10.4 10.4 0 0 0
14-07-2020 21.1 (17:00) 16.8 (00:00) 18.9 6.39 (13:00) 3.89 (12:40) 1.6 0 0 0 1.6
13-07-2020 21.9 (14:20) 14.6 (00:00) 18.3 6.94 (11:30) 4.17 (11:50) 0 0 0 0 0

Gráficas

Temp. máximas Temp. mínimas Temp. medias Precipitaciones Rachas de viento máximas Velocidades máximas media en intervalos de 10 minutos

Datos horarios

Fecha y hora oficial Temperatura (ºC) Velocidad del viento (km/h) Dirección del viento Racha (km/h) Dirección de racha Precipitación (mm) Presión (hPa) Tendencia (hPa) Humedad (%)
2020-08-11 23:00:00 20.1 2 Sudoeste 14 Nordeste 0.4 -- -- 98
2020-08-11 22:00:00 20.1 4 Nordeste 17 Norte 0.2 -- -- 98
2020-08-11 21:00:00 20 7 Noroeste 17 Noroeste 0 -- -- 98
2020-08-11 20:00:00 20.3 10 Oeste 15 Sudoeste 0.2 -- -- 98
2020-08-11 19:00:00 20.5 5 Noroeste 11 Oeste 3.6 -- -- 98
2020-08-11 18:00:00 20.7 4 Sur 16 Nordeste 0.2 -- -- 97
2020-08-11 17:00:00 20.8 10 Nordeste 17 Nordeste 0 -- -- 96
2020-08-11 16:00:00 20.9 6 Norte 13 Norte 0 -- -- 95
2020-08-11 15:00:00 20.9 5 Norte 14 Norte 0 -- -- 96
2020-08-11 14:00:00 21 10 Nordeste 20 Norte 0 -- -- 97
2020-08-11 13:00:00 20.3 4 Nordeste 14 Nordeste 0.4 -- -- 99
2020-08-11 12:00:00 20.1 5 Oeste 8 Oeste 0.2 -- -- 98
2020-08-11 11:00:00 19.6 5 Oeste 11 Oeste 0 -- -- 98
2020-08-11 10:00:00 19.6 4 Noroeste 6 Noroeste 0 -- -- 99
2020-08-11 09:00:00 19.3 0 Calma 4 Nordeste 0 -- -- 98
2020-08-11 08:00:00 19.5 2 Noroeste 5 Este 0 -- -- 98
2020-08-11 07:00:00 19.4 4 Nordeste 8 Nordeste 0.2 -- -- 98
2020-08-11 06:00:00 19.5 0 Calma 5 Este 0 -- -- 98
2020-08-11 05:00:00 19.7 0 Calma 5 Oeste 0.2 -- -- 98
2020-08-11 04:00:00 19.6 2 Oeste 6 Oeste 0 -- -- 97
2020-08-11 03:00:00 19.5 3 Oeste 6 Oeste 0 -- -- 97
2020-08-11 02:00:00 19.4 2 Oeste 9 Oeste 0 -- -- 96
2020-08-11 01:00:00 19.4 4 Oeste 9 Oeste 0 -- -- 96
2020-08-11 00:00:00 19.5 6 Oeste 8 Oeste 0 -- -- 94
2020-08-10 23:00:00 19.5 2 Noroeste 8 Noroeste 0 -- -- 93
2020-08-10 22:00:00 19.8 3 Oeste 11 Noroeste 0 -- -- 91
2020-08-10 21:00:00 20.3 5 Noroeste 12 Oeste 0 -- -- 91
2020-08-10 20:00:00 21.2 5 Norte 10 Noroeste 0 -- -- 84
2020-08-10 19:00:00 21.4 5 Noroeste 10 Noroeste 0 -- -- 83
2020-08-10 18:00:00 21.4 5 Noroeste 12 Noroeste 0 -- -- 84
2020-08-10 17:00:00 21.5 6 Noroeste 15 Norte 0 -- -- 84
2020-08-10 16:00:00 21.8 9 Noroeste 15 Oeste 0 -- -- 79
2020-08-10 15:00:00 21.9 8 Noroeste 18 Noroeste 0 -- -- 81
2020-08-10 14:00:00 21.6 9 Noroeste 15 Noroeste 0 -- -- 81
2020-08-10 13:00:00 20.8 7 Oeste 14 Noroeste 0 -- -- 86
2020-08-10 12:00:00 21.1 5 Oeste 10 Oeste 0 -- -- 84
2020-08-10 11:00:00 20.2 8 Oeste 15 Oeste 0 -- -- 89
2020-08-10 10:00:00 19.7 9 Oeste 13 Oeste 0 -- -- 93
2020-08-10 09:00:00 19.4 5 Oeste 8 Oeste 0 -- -- 93
2020-08-10 08:00:00 19.5 5 Oeste 9 Oeste 0 -- -- 93
2020-08-10 07:00:00 19.4 6 Oeste 9 Sudoeste 0 -- -- 92
2020-08-10 06:00:00 19.4 7 Oeste 9 Sudoeste 0 -- -- 89
2020-08-10 05:00:00 19.7 0 Calma 9 Sudoeste 0 -- -- 86
2020-08-10 04:00:00 19.6 6 Oeste 8 Oeste 0 -- -- 85
2020-08-10 03:00:00 19.4 5 Oeste 7 Oeste 0 -- -- 86
2020-08-10 02:00:00 19.4 2 Sur 6 Sur 0 -- -- 87
2020-08-10 01:00:00 19.7 3 Sudoeste 9 Oeste 0 -- -- 90
2020-08-10 00:00:00 20.2 5 Oeste 8 Oeste 0 -- -- 90
2020-08-09 23:00:00 20.2 5 Oeste 10 Oeste 0 -- -- 88
2020-08-09 22:00:00 20.4 6 Oeste 10 Oeste 0 -- -- 86
2020-08-09 21:00:00 21.1 5 Noroeste 10 Noroeste 0 -- -- 82
2020-08-09 20:00:00 21.2 4 Norte 12 Noroeste 0 -- -- 84
2020-08-09 19:00:00 21.6 6 Norte 15 Noroeste 0 -- -- 82
2020-08-09 18:00:00 22.6 8 Noroeste 17 Noroeste 0 -- -- 78
2020-08-09 17:00:00 22.8 6 Norte 14 Noroeste 0 -- -- 74
2020-08-09 16:00:00 23 8 Norte 15 Norte 0 -- -- 73
2020-08-09 15:00:00 22.6 6 Noroeste 10 Noroeste 0 -- -- 73
2020-08-09 14:00:00 22.4 6 Norte 12 Norte 0 -- -- 74
2020-08-09 13:00:00 21.5 7 Noroeste 14 Norte 0 -- -- 79
2020-08-09 12:00:00 22.1 6 Norte 13 Norte 0 -- -- 76
2020-08-09 11:00:00 21.5 5 Norte 9 Norte 0 -- -- 83
2020-08-09 10:00:00 20.4 0 Calma 8 Sur 0 -- -- 87
2020-08-09 09:00:00 19.5 5 Sur 8 Sudeste 0 -- -- 94
2020-08-09 08:00:00 19.4 5 Sur 6 Nordeste 0 -- -- 94
2020-08-09 07:00:00 19.2 3 Nordeste 7 Este 0 -- -- 94
2020-08-09 06:00:00 19.2 0 Calma 3 Oeste 0 -- -- 95
2020-08-09 05:00:00 19.1 0 Calma 4 Sur 0 -- -- 95
2020-08-09 04:00:00 19.3 0 Calma 5 Oeste 0 -- -- 95
2020-08-09 03:00:00 19.4 0 Calma 3 Sudeste 0 -- -- 95
2020-08-09 02:00:00 19.4 0 Calma 4 Sudoeste 0 -- -- 94
2020-08-09 01:00:00 19.6 0 Calma 8 Este 0 -- -- 93
2020-08-09 00:00:00 19.9 3 Nordeste 9 Este 0 -- -- 94
2020-08-08 23:00:00 18.9 3 Sudeste 6 Sudeste 0 -- -- 93
2020-08-08 22:00:00 19.9 2 Nordeste 16 Nordeste 0 -- -- 89
2020-08-08 21:00:00 20.7 8 Nordeste 20 Nordeste 0 -- -- 87
2020-08-08 20:00:00 21.1 12 Nordeste 21 Nordeste 0 -- -- 85
2020-08-08 19:00:00 21.4 13 Nordeste 20 Nordeste 0 -- -- 84
2020-08-08 18:00:00 21.7 10 Nordeste 23 Nordeste 0 -- -- 84
2020-08-08 17:00:00 21.8 14 Nordeste 24 Nordeste 0 -- -- 83
2020-08-08 16:00:00 22.2 17 Nordeste 27 Nordeste 0 -- -- 83
2020-08-08 15:00:00 22.5 13 Nordeste 22 Nordeste 0 -- -- 82
2020-08-08 14:00:00 23.4 8 Norte 19 Norte 0 -- -- 80
2020-08-08 13:00:00 23.9 8 Norte 18 Nordeste 0 -- -- 78
2020-08-08 12:00:00 22.2 8 Norte 14 Norte 0 -- -- 82
2020-08-08 11:00:00 21.3 3 Norte 10 Noroeste 0 -- -- 86
2020-08-08 10:00:00 20.2 6 Noroeste 10 Noroeste 0 -- -- 94
2020-08-08 09:00:00 19.2 5 Oeste 7 Oeste 0 -- -- 99
2020-08-08 08:00:00 17.7 3 Oeste 4 Oeste 0 -- -- 98
2020-08-08 07:00:00 17.1 0 Calma 4 Sur 0 -- -- 98
2020-08-08 06:00:00 17.5 0 Calma 5 Sudoeste 0 -- -- 97
2020-08-08 05:00:00 17.3 0 Calma 5 Sudoeste 0 -- -- 97
2020-08-08 04:00:00 17.3 0 Calma 5 Oeste 0 -- -- 96
2020-08-08 03:00:00 17.6 2 Sudoeste 5 Oeste 0 -- -- 96
2020-08-08 02:00:00 17.9 0 Calma 4 Sudoeste 0 -- -- 95
2020-08-08 01:00:00 18.1 3 Sudoeste 5 Sur 0 -- -- 94
2020-08-08 00:00:00 18.8 2 Sudoeste 5 Oeste 0 -- -- 91
2020-08-07 23:00:00 19.7 3 Oeste 7 Oeste 0 -- -- 91
2020-08-07 22:00:00 20.4 4 Oeste 10 Oeste 0 -- -- 89
2020-08-07 21:00:00 21.2 6 Noroeste 16 Noroeste 0 -- -- 86
2020-08-07 20:00:00 21.4 10 Noroeste 19 Noroeste 0 -- -- 85
2020-08-07 19:00:00 22.3 10 Noroeste 19 Noroeste 0 -- -- 82
2020-08-07 18:00:00 23.2 9 Noroeste 20 Noroeste 0 -- -- 78
2020-08-07 17:00:00 23.6 12 Noroeste 23 Noroeste 0 -- -- 76
2020-08-07 16:00:00 24.1 10 Noroeste 22 Noroeste 0 -- -- 70
2020-08-07 15:00:00 23.4 14 Noroeste 26 Noroeste 0 -- -- 73
2020-08-07 14:00:00 22.3 13 Noroeste 23 Noroeste 0 -- -- 79
2020-08-07 13:00:00 22.6 13 Noroeste 23 Noroeste 0 -- -- 79
2020-08-07 12:00:00 22.1 11 Noroeste 25 Noroeste 0 -- -- 84
2020-08-07 11:00:00 20.8 12 Noroeste 24 Noroeste 0 -- -- 90
2020-08-07 10:00:00 20.7 7 Oeste 18 Noroeste 0 -- -- 94
2020-08-07 09:00:00 20.7 6 Oeste 13 Noroeste 0 -- -- 95
2020-08-07 08:00:00 20.8 3 Noroeste 11 Oeste 0 -- -- 94
2020-08-07 07:00:00 20.6 5 Oeste 8 Oeste 0 -- -- 95
2020-08-07 06:00:00 20.6 4 Oeste 7 Oeste 0 -- -- 95
2020-08-07 05:00:00 20.7 5 Oeste 8 Oeste 0 -- -- 95
2020-08-07 04:00:00 20.9 0 Calma 7 Sudoeste 0 -- -- 95
2020-08-07 03:00:00 20.8 3 Sudoeste 8 Sudoeste 0 -- -- 96
2020-08-07 02:00:00 20.9 4 Sudoeste 8 Sudoeste 0 -- -- 96
2020-08-07 01:00:00 21.4 2 Oeste 5 Oeste 0 -- -- 96
2020-08-07 00:00:00 21.6 3 Oeste 8 Noroeste 0 -- -- 96
2020-08-06 23:00:00 21.5 3 Oeste 9 Oeste 0 -- -- 95
2020-08-06 22:00:00 21.6 4 Oeste 9 Oeste 0 -- -- 93
2020-08-06 21:00:00 22.1 4 Oeste 10 Noroeste 0 -- -- 91
2020-08-06 20:00:00 22.6 4 Noroeste 12 Noroeste 0 -- -- 88
2020-08-06 19:00:00 23.8 4 Norte 12 Nordeste 0 -- -- 82
2020-08-06 18:00:00 22.9 5 Norte 12 Nordeste 0 -- -- 84
2020-08-06 17:00:00 23.4 7 Nordeste 17 Nordeste 0 -- -- 78
2020-08-06 16:00:00 24.2 6 Norte 15 Norte 0 -- -- 75
2020-08-06 15:00:00 23.4 8 Norte 15 Nordeste 0 -- -- 76
2020-08-06 14:00:00 23.5 10 Nordeste 17 Nordeste 0 -- -- 74
2020-08-06 13:00:00 22.9 7 Norte 15 Nordeste 0 -- -- 78
2020-08-06 12:00:00 21.9 6 Nordeste 12 Nordeste 0 -- -- 82
2020-08-06 11:00:00 20.8 4 Norte 9 Nordeste 0 -- -- 88
2020-08-06 10:00:00 19.8 3 Norte 6 Norte 0 -- -- 93
2020-08-06 09:00:00 19.1 3 Nordeste 5 Nordeste 0 -- -- 97
2020-08-06 08:00:00 18.4 3 Sur 5 Sudeste 0 -- -- 98
2020-08-06 07:00:00 18.3 0 Calma 3 Sudeste 0 -- -- 98
2020-08-06 06:00:00 18.1 0 Calma 4 Sudeste 0 -- -- 98
2020-08-06 05:00:00 17.7 0 Calma 4 Sur 0 -- -- 98
2020-08-06 04:00:00 17.3 3 Sur 6 Sur 0 -- -- 97
2020-08-06 03:00:00 17.2 3 Sur 5 Sur 0 -- -- 96
2020-08-06 02:00:00 18.5 0 Calma 4 Sur 0 -- -- 97
2020-08-06 01:00:00 18.4 3 Sudeste 6 Sur 0 -- -- 97
2020-08-06 00:00:00 17.8 2 Sur 5 Sur 0 -- -- 94
2020-08-05 23:00:00 18.4 3 Sudoeste 4 Sur 0 -- -- 92
2020-08-05 22:00:00 20 2 Oeste 6 Noroeste 0 -- -- 91
2020-08-05 21:00:00 21.4 5 Noroeste 13 Noroeste 0 -- -- 86
2020-08-05 20:00:00 22.5 4 Noroeste 16 Noroeste 0 -- -- 83
2020-08-05 19:00:00 22.1 6 Noroeste 15 Noroeste 0 -- -- 83
2020-08-05 18:00:00 22.4 6 Noroeste 15 Noroeste 0 -- -- 84
2020-08-05 17:00:00 22.1 7 Norte 17 Noroeste 0 -- -- 82
2020-08-05 16:00:00 21.8 10 Noroeste 22 Noroeste 0 -- -- 86
2020-08-05 15:00:00 22.8 12 Noroeste 22 Noroeste 0 -- -- 80
2020-08-05 14:00:00 22.6 10 Noroeste 21 Noroeste 0 -- -- 79
2020-08-05 13:00:00 22.9 11 Noroeste 18 Noroeste 0 -- -- 78
2020-08-05 12:00:00 21.7 9 Norte 17 Noroeste 0 -- -- 79
2020-08-05 11:00:00 21.4 3 Noroeste 8 Noroeste 0 -- -- 82
2020-08-05 10:00:00 18.9 5 Noroeste 12 Oeste 0 -- -- 94
2020-08-05 09:00:00 17.9 7 Oeste 12 Oeste 0 -- -- 97
2020-08-05 08:00:00 15.7 3 Sur 9 Sur 0 -- -- 96
2020-08-05 07:00:00 15.8 8 Sur 15 Sur 0 -- -- 96
2020-08-05 06:00:00 16.1 11 Sur 14 Sur 0 -- -- 96
2020-08-05 05:00:00 16.4 10 Sur 13 Sur 0 -- -- 96
2020-08-05 04:00:00 16.9 8 Sur 13 Sur 0 -- -- 95
2020-08-05 03:00:00 17.4 4 Sur 7 Sudoeste 0 -- -- 96
2020-08-05 02:00:00 17.5 4 Sudoeste 9 Oeste 0 -- -- 97
2020-08-05 01:00:00 17 6 Oeste 9 Oeste 0 -- -- 95
2020-08-05 00:00:00 17.2 0 Calma 5 Sur 0 -- -- 93
2020-08-04 23:00:00 17.9 3 Sur 5 Sur 0 -- -- 90
2020-08-04 22:00:00 19.4 0 Calma 11 Nordeste 0 -- -- 87
2020-08-04 21:00:00 20.8 6 Nordeste 13 Nordeste 0 -- -- 82
2020-08-04 20:00:00 21.9 7 Nordeste 19 Este 0 -- -- 77
2020-08-04 19:00:00 22.4 13 Nordeste 23 Este 0 -- -- 75
2020-08-04 18:00:00 22.4 15 Nordeste 26 Nordeste 0 -- -- 72
2020-08-04 17:00:00 22.4 10 Nordeste 19 Nordeste 0 -- -- 77
2020-08-04 16:00:00 22.6 9 Norte 20 Norte 0 -- -- 74
2020-08-04 15:00:00 22.8 9 Norte 18 Nordeste 0 -- -- 71
2020-08-04 14:00:00 23.1 8 Norte 15 Norte 0 -- -- 73
2020-08-04 13:00:00 22.4 7 Norte 14 Norte 0 -- -- 73
2020-08-04 12:00:00 22.3 6 Norte 12 Nordeste 0 -- -- 77
2020-08-04 11:00:00 20.8 6 Norte 10 Norte 0 -- -- 80
2020-08-04 10:00:00 19.9 3 Este 6 Noroeste 0 -- -- 91
2020-08-04 09:00:00 18.1 0 Calma 4 Oeste 0 -- -- 97
2020-08-04 08:00:00 16.9 2 Sudoeste 4 Sur 0 -- -- 97
2020-08-04 07:00:00 17.5 0 Calma 6 Sur 0 -- -- 97
2020-08-04 06:00:00 17.7 0 Calma 4 Sur 0 -- -- 97
2020-08-04 05:00:00 18 0 Calma 6 Sur 0 -- -- 97
2020-08-04 04:00:00 18.3 4 Sur 8 Sur 0 -- -- 96
2020-08-04 03:00:00 18.5 0 Calma 7 Sudoeste 1.6 -- -- 96
2020-08-04 02:00:00 18.4 4 Sur 5 Sudoeste 0 -- -- 96
2020-08-04 01:00:00 18.4 2 Sudeste 5 Sur 0 -- -- 95
2020-08-04 00:00:00 18.6 4 Sur 6 Sudeste 0 -- -- 94
2020-08-03 23:00:00 18.6 4 Sudeste 6 Sudeste 0 -- -- 93
2020-08-03 22:00:00 18.8 3 Sudeste 8 Este 0.2 -- -- 91
2020-08-03 21:00:00 19.3 4 Este 8 Nordeste 0 -- -- 88
2020-08-03 20:00:00 19.8 4 Este 12 Nordeste 0 -- -- 84
2020-08-03 19:00:00 20 6 Nordeste 17 Nordeste 0 -- -- 80
2020-08-03 18:00:00 21.6 10 Nordeste 20 Nordeste 0 -- -- 75
2020-08-03 17:00:00 21.3 11 Nordeste 18 Nordeste 0 -- -- 75
2020-08-03 16:00:00 22.6 10 Nordeste 15 Nordeste 0 -- -- 66
2020-08-03 15:00:00 21.5 9 Nordeste 18 Norte 0 -- -- 69
2020-08-03 14:00:00 21.6 9 Noroeste 17 Noroeste 0 -- -- 72
2020-08-03 13:00:00 22.4 9 Noroeste 17 Noroeste 0 -- -- 64
2020-08-03 12:00:00 22.5 9 Noroeste 17 Noroeste 0 -- -- 57
2020-08-03 11:00:00 21.2 6 Norte 19 Sur 0 -- -- 70
2020-08-03 10:00:00 19.6 12 Sur 21 Sur 0 -- -- 77
2020-08-03 09:00:00 17.1 11 Sur 20 Sur 0 -- -- 89
2020-08-03 08:00:00 15.3 3 Sudeste 10 Sudeste 0 -- -- 96
2020-08-03 07:00:00 14.6 7 Sur 11 Sudeste 0 -- -- 97
2020-08-03 06:00:00 14.8 7 Sur 11 Sur 0 -- -- 96
2020-08-03 05:00:00 14.8 8 Sur 11 Sur 0 -- -- 96
2020-08-03 04:00:00 15.3 4 Sur 7 Sudoeste 0 -- -- 95
2020-08-03 03:00:00 15 3 Sudoeste 6 Sur 0 -- -- 95
2020-08-03 02:00:00 14.8 0 Calma 5 Sur 0 -- -- 93
2020-08-03 01:00:00 15.6 0 Calma 5 Sudeste 0 -- -- 90
2020-08-03 00:00:00 17.4 6 Sur 9 Sudeste 0 -- -- 89
2020-08-02 23:00:00 18.5 0 Calma 9 Nordeste 0 -- -- 88
2020-08-02 22:00:00 19 0 Calma 6 Nordeste 0 -- -- 84
2020-08-02 21:00:00 19.4 5 Nordeste 10 Nordeste 0 -- -- 79
2020-08-02 20:00:00 19.8 4 Norte 13 Norte 0 -- -- 76
2020-08-02 19:00:00 20.2 4 Norte 14 Nordeste 0 -- -- 75
2020-08-02 18:00:00 20.8 5 Norte 14 Norte 0 -- -- 73
2020-08-02 17:00:00 21.4 8 Norte 19 Norte 0 -- -- 70
2020-08-02 16:00:00 21.7 10 Nordeste 19 Nordeste 0 -- -- 68
2020-08-02 15:00:00 21.7 10 Norte 21 Nordeste 0 -- -- 68
2020-08-02 14:00:00 22.2 9 Norte 19 Este 0 -- -- 67
2020-08-02 13:00:00 21.2 13 Nordeste 23 Nordeste 0 -- -- 70
2020-08-02 12:00:00 20.3 11 Nordeste 19 Nordeste 0 -- -- 73
2020-08-02 11:00:00 19.9 11 Nordeste 21 Este 0 -- -- 76
2020-08-02 10:00:00 19.1 9 Nordeste 18 Nordeste 0 -- -- 82
2020-08-02 09:00:00 18.1 4 Nordeste 9 Nordeste 0 -- -- 93
2020-08-02 08:00:00 16.8 2 Oeste 5 Sur 0 -- -- 96
2020-08-02 07:00:00 16.4 0 Calma 4 Sur 0 -- -- 95
2020-08-02 06:00:00 16.5 2 Sudoeste 8 Sudeste 0 -- -- 96
2020-08-02 05:00:00 16.7 0 Calma 5 Sur 0 -- -- 96
2020-08-02 04:00:00 16.8 2 Sur 8 Sudeste 0 -- -- 96
2020-08-02 03:00:00 16.6 4 Oeste 5 Oeste 0 -- -- 96
2020-08-02 02:00:00 15.8 4 Sur 8 Sur 0 -- -- 96
2020-08-02 01:00:00 15.7 4 Sur 5 Sur 0 -- -- 93
2020-08-02 00:00:00 16.9 0 Calma 4 Este 0 -- -- 90
2020-08-01 23:00:00 18.4 2 Este 6 Norte 0 -- -- 89
2020-08-01 22:00:00 19 3 Nordeste 10 Norte 0 -- -- 88
2020-08-01 21:00:00 19.7 5 Norte 13 Norte 0 -- -- 85
2020-08-01 20:00:00 20.3 6 Norte 14 Norte 0 -- -- 83
2020-08-01 19:00:00 19.9 5 Norte 19 Noroeste 0 -- -- 85
2020-08-01 18:00:00 20.7 8 Noroeste 19 Noroeste 0 -- -- 83
2020-08-01 17:00:00 21 12 Noroeste 19 Noroeste 0 -- -- 81
2020-08-01 16:00:00 21.4 11 Norte 19 Norte 0 -- -- 80
2020-08-01 15:00:00 21.7 8 Noroeste 17 Noroeste 0 -- -- 78
2020-08-01 14:00:00 20.9 10 Noroeste 18 Norte 0 -- -- 81
2020-08-01 13:00:00 20.8 10 Noroeste 17 Noroeste 0 -- -- 80
2020-08-01 12:00:00 20.7 10 Noroeste 17 Noroeste 0 -- -- 85
2020-08-01 11:00:00 18.9 6 Oeste 13 Oeste 0 -- -- 94
2020-08-01 10:00:00 18.3 7 Oeste 12 Oeste 0 -- -- 96
2020-08-01 09:00:00 17.8 5 Oeste 8 Oeste 0.4 -- -- 97
2020-08-01 08:00:00 18 4 Oeste 6 Oeste 0 -- -- 95
2020-08-01 07:00:00 18.1 4 Oeste 7 Oeste 0 -- -- 94
2020-08-01 06:00:00 18.1 2 Sudeste 3 Sudeste 0 -- -- 94
2020-08-01 05:00:00 18.1 0 Calma 5 Sur 0 -- -- 94
2020-08-01 04:00:00 18.1 3 Sur 9 Oeste 0 -- -- 94
2020-08-01 03:00:00 18 6 Oeste 10 Oeste 0 -- -- 94
2020-08-01 02:00:00 18.1 6 Sudoeste 16 Noroeste 0 -- -- 92
2020-08-01 01:00:00 19.1 3 Este 6 Nordeste 0 -- -- 92
2020-08-01 00:00:00 19.1 3 Este 10 Este 0 -- -- 92
2020-07-31 23:00:00 18.9 8 Este 13 Este 0 -- -- 93
2020-07-31 22:00:00 19 10 Este 16 Este 0 -- -- 93
2020-07-31 21:00:00 19.9 9 Nordeste 13 Nordeste 0 -- -- 88
2020-07-31 20:00:00 20.5 5 Norte 14 Norte 0 -- -- 82
2020-07-31 19:00:00 21 7 Nordeste 16 Este 0 -- -- 78
2020-07-31 18:00:00 21.3 9 Nordeste 15 Este 0 -- -- 80
2020-07-31 17:00:00 21.6 8 Nordeste 21 Nordeste 0 -- -- 79
2020-07-31 16:00:00 21.9 11 Norte 19 Norte 0 -- -- 78
2020-07-31 15:00:00 22 12 Nordeste 20 Nordeste 0 -- -- 77
2020-07-31 14:00:00 22.5 12 Nordeste 19 Nordeste 0 -- -- 73
2020-07-31 13:00:00 22.4 9 Nordeste 18 Nordeste 0 -- -- 75
2020-07-31 12:00:00 21.7 6 Norte 14 Noroeste 0 -- -- 80
2020-07-31 11:00:00 20.7 5 Oeste 14 Noroeste 0 -- -- 83
2020-07-31 10:00:00 19.5 8 Noroeste 14 Oeste 0 -- -- 89
2020-07-31 09:00:00 18.7 2 Oeste 5 Oeste 0 -- -- 94
2020-07-31 08:00:00 18.3 4 Noroeste 7 Oeste 0 -- -- 95
2020-07-31 07:00:00 18.1 0 Calma 8 Sudeste 0 -- -- 95
2020-07-31 06:00:00 18.3 7 Este 18 Este 0 -- -- 95
2020-07-31 05:00:00 18.4 10 Este 21 Este 0 -- -- 95
2020-07-31 04:00:00 18.6 15 Este 25 Este 0 -- -- 94
2020-07-31 03:00:00 18.2 12 Este 21 Este 0 -- -- 96
2020-07-31 02:00:00 18.3 14 Este 23 Este 0 -- -- 96
2020-07-31 01:00:00 18.1 0 Calma 14 Oeste 0 -- -- 92
2020-07-31 00:00:00 18.3 3 Oeste 6 Noroeste 0 -- -- 91
2020-07-30 23:00:00 19.1 0 Calma 9 Oeste 0 -- -- 89
2020-07-30 22:00:00 20.7 4 Oeste 18 Nordeste 0 -- -- 83
2020-07-30 21:00:00 21.8 8 Nordeste 18 Este 0 -- -- 78
2020-07-30 20:00:00 22.2 5 Norte 16 Noroeste 0 -- -- 78
2020-07-30 19:00:00 22.7 10 Noroeste 16 Noroeste 0 -- -- 75
2020-07-30 18:00:00 23.3 8 Noroeste 22 Noroeste 0 -- -- 74
2020-07-30 17:00:00 24.2 11 Noroeste 30 Noroeste 0 -- -- 72
2020-07-30 16:00:00 25.7 14 Noroeste 27 Noroeste 0 -- -- 68
2020-07-30 15:00:00 23.7 7 Norte 14 Norte 0 -- -- 76
2020-07-30 14:00:00 24.4 6 Noroeste 12 Noroeste 0 -- -- 74
2020-07-30 13:00:00 22.9 6 Norte 13 Nordeste 0 -- -- 78
2020-07-30 12:00:00 21.7 7 Norte 12 Norte 0 -- -- 81
2020-07-30 11:00:00 21.3 3 Sur 15 Oeste 0 -- -- 86
2020-07-30 10:00:00 18.8 10 Noroeste 19 Noroeste 0 -- -- 92
2020-07-30 09:00:00 18.9 4 Noroeste 11 Sudeste 0 -- -- 92
2020-07-30 08:00:00 17.8 6 Sudeste 12 Sur 0 -- -- 94
2020-07-30 07:00:00 18.2 8 Sur 12 Sur 0 -- -- 93
2020-07-30 06:00:00 18.3 5 Sur 7 Sur 0 -- -- 94
2020-07-30 05:00:00 18.3 5 Sur 8 Sur 0 -- -- 94
2020-07-30 04:00:00 18.1 4 Sudoeste 11 Oeste 0 -- -- 94
2020-07-30 03:00:00 17.9 8 Oeste 13 Oeste 0 -- -- 94
2020-07-30 02:00:00 17.9 9 Oeste 14 Oeste 0 -- -- 93
2020-07-30 01:00:00 18.2 6 Oeste 9 Oeste 0 -- -- 92
2020-07-30 00:00:00 18.5 0 Calma 13 Este 0 -- -- 90
2020-07-29 23:00:00 18.5 9 Este 21 Nordeste 0 -- -- 90
2020-07-29 22:00:00 18.7 14 Nordeste 24 Este 0 -- -- 88
2020-07-29 21:00:00 19 11 Nordeste 27 Este 0 -- -- 87
2020-07-29 20:00:00 19.4 14 Nordeste 28 Nordeste 0 -- -- 85
2020-07-29 19:00:00 19.8 15 Nordeste 31 Nordeste 0 -- -- 84
2020-07-29 18:00:00 20 19 Nordeste 31 Nordeste 0 -- -- 83
2020-07-29 17:00:00 20.7 17 Nordeste 39 Nordeste 0 -- -- 81
2020-07-29 16:00:00 20.5 22 Nordeste 40 Nordeste 0 -- -- 81
2020-07-29 15:00:00 20.1 20 Nordeste 37 Este 0 -- -- 84
2020-07-29 14:00:00 19.5 20 Nordeste 39 Nordeste 0 -- -- 87
2020-07-29 13:00:00 19.4 23 Nordeste 39 Nordeste 0 -- -- 86
2020-07-29 12:00:00 19.2 23 Este 39 Nordeste 0 -- -- 87
2020-07-29 11:00:00 18.4 22 Este 38 Este 0 -- -- 91
2020-07-29 10:00:00 18.1 19 Este 37 Nordeste 0 -- -- 93
2020-07-29 09:00:00 18.2 16 Nordeste 28 Este 0 -- -- 93
2020-07-29 08:00:00 17.9 15 Este 27 Este 0 -- -- 93
2020-07-29 07:00:00 17.6 13 Nordeste 21 Este 0 -- -- 93
2020-07-29 06:00:00 17.7 12 Este 21 Nordeste 0 -- -- 91
2020-07-29 05:00:00 17.7 9 Este 21 Este 0 -- -- 92
2020-07-29 04:00:00 17.8 12 Este 28 Este 0 -- -- 89
2020-07-29 03:00:00 17.9 13 Este 20 Este 0 -- -- 88
2020-07-29 02:00:00 17.7 10 Este 21 Este 0 -- -- 88
2020-07-29 01:00:00 17.8 10 Nordeste 22 Este 0 -- -- 89
2020-07-29 00:00:00 17.8 13 Este 22 Nordeste 0 -- -- 86
2020-07-28 23:00:00 17.8 11 Este 26 Nordeste 0 -- -- 87
2020-07-28 22:00:00 18 15 Este 27 Este 0 -- -- 86
2020-07-28 21:00:00 18.2 14 Este 27 Nordeste 0 -- -- 86
2020-07-28 20:00:00 18.2 17 Este 32 Este 0 -- -- 87
2020-07-28 19:00:00 17.9 17 Nordeste 29 Este 0 -- -- 90
2020-07-28 18:00:00 18.2 13 Este 23 Este 0 -- -- 93
2020-07-28 17:00:00 18.3 16 Este 25 Este 0 -- -- 94
2020-07-28 16:00:00 18 14 Nordeste 26 Nordeste 0 -- -- 97
2020-07-28 15:00:00 17.9 15 Nordeste 30 Nordeste 0 -- -- 99
2020-07-28 14:00:00 17.8 17 Nordeste 29 Nordeste 0.4 -- -- 98
2020-07-28 13:00:00 18.6 12 Nordeste 20 Nordeste 0.8 -- -- 97
2020-07-28 12:00:00 18.8 2 Norte 12 Noroeste 0.2 -- -- 95
2020-07-28 11:00:00 19.4 4 Noroeste 8 Norte 0 -- -- 93
2020-07-28 10:00:00 18.6 0 Calma 6 Sur 0 -- -- 97
2020-07-28 09:00:00 18 4 Sur 6 Este 0.2 -- -- 98
2020-07-28 08:00:00 18 0 Calma 3 Sudeste 0 -- -- 98
2020-07-28 07:00:00 17.9 0 Calma 5 Sudeste 0.2 -- -- 98
2020-07-28 06:00:00 18 2 Sur 6 Nordeste 0 -- -- 98
2020-07-28 05:00:00 17.9 6 Nordeste 14 Noroeste 0.6 -- -- 98
2020-07-28 04:00:00 18.4 0 Calma 4 Noroeste 0.6 -- -- 97
2020-07-28 03:00:00 18.4 4 Noroeste 8 Oeste 0 -- -- 96
2020-07-28 02:00:00 18.7 6 Noroeste 14 Noroeste 0 -- -- 95
2020-07-28 01:00:00 19.7 3 Noroeste 6 Noroeste 0 -- -- 92
2020-07-28 00:00:00 20 3 Este 8 Nordeste 0 -- -- 92
2020-07-27 23:00:00 20.1 4 Nordeste 12 Nordeste 0 -- -- 92
2020-07-27 22:00:00 20.6 7 Nordeste 14 Nordeste 0 -- -- 91
2020-07-27 21:00:00 21.6 9 Nordeste 20 Este 0 -- -- 86
2020-07-27 20:00:00 22.5 11 Nordeste 22 Nordeste 0 -- -- 81
2020-07-27 19:00:00 24 11 Nordeste 18 Nordeste 0 -- -- 73
2020-07-27 18:00:00 24.6 8 Nordeste 15 Nordeste 0 -- -- 70
2020-07-27 17:00:00 24.5 8 Nordeste 19 Norte 0 -- -- 73
2020-07-27 16:00:00 24.1 8 Norte 18 Nordeste 0 -- -- 74
2020-07-27 15:00:00 24.1 8 Norte 18 Noroeste 0 -- -- 74
2020-07-27 14:00:00 23.7 8 Noroeste 20 Norte 0 -- -- 69
2020-07-27 13:00:00 27 8 Norte 14 Norte 0 -- -- 57
2020-07-27 12:00:00 26.8 6 Nordeste 15 Sudoeste 0 -- -- 61
2020-07-27 09:00:00 -- -- -- -- -- -- -- -- --
2020-07-27 08:00:00 -- -- -- -- -- -- -- -- --
2020-07-27 07:00:00 15.6 4 Sur 6 Sur 0 -- -- 97
2020-07-27 06:00:00 15.9 4 Sudeste 8 Sur 0 -- -- 97
2020-07-27 05:00:00 16.3 6 Sur 10 Sur 0 -- -- 97
2020-07-27 04:00:00 16 3 Sur 6 Sudoeste 0 -- -- 96
2020-07-27 03:00:00 16.5 5 Oeste 9 Sur 0 -- -- 97
2020-07-27 02:00:00 16.4 8 Sudeste 10 Sudeste 0 -- -- 96
2020-07-27 01:00:00 16.4 3 Sudeste 5 Sur 0 -- -- 94
2020-07-27 00:00:00 17 2 Sur 5 Sur 0 -- -- 92
2020-07-26 23:00:00 18 2 Sur 6 Oeste 0 -- -- 90
2020-07-26 22:00:00 19.3 3 Oeste 11 Nordeste 0 -- -- 88
2020-07-26 21:00:00 20.5 7 Nordeste 22 Este 0 -- -- 85
2020-07-26 20:00:00 21.7 12 Este 24 Este 0 -- -- 79
2020-07-26 19:00:00 21.8 16 Nordeste 29 Nordeste 0 -- -- 79
2020-07-26 18:00:00 22.4 16 Nordeste 29 Este 0 -- -- 77
2020-07-26 17:00:00 22.5 19 Nordeste 30 Nordeste 0 -- -- 75
2020-07-26 16:00:00 22.2 17 Nordeste 27 Nordeste 0 -- -- 76
2020-07-26 15:00:00 22.3 12 Nordeste 19 Norte 0 -- -- 76
2020-07-26 14:00:00 22.4 11 Nordeste 18 Nordeste 0 -- -- 75
2020-07-26 13:00:00 22.8 9 Nordeste 17 Nordeste 0 -- -- 76
2020-07-26 12:00:00 22.1 8 Norte 15 Norte 0 -- -- 77
2020-07-26 11:00:00 20.8 6 Norte 13 Norte 0 -- -- 83
2020-07-26 10:00:00 20.4 2 Norte 6 Oeste 0 -- -- 87
2020-07-26 09:00:00 18.8 3 Noroeste 11 Oeste 0 -- -- 96
2020-07-26 08:00:00 18.6 4 Oeste 9 Oeste 0 -- -- 95
2020-07-26 07:00:00 18.6 9 Oeste 13 Oeste 0 -- -- 94
2020-07-26 06:00:00 18.6 0 Calma 9 Norte 0 -- -- 92
2020-07-26 05:00:00 18.4 3 Nordeste 8 Sur 0 -- -- 93
2020-07-26 04:00:00 17.8 0 Calma 5 Sur 0 -- -- 93
2020-07-26 03:00:00 17.5 5 Sur 9 Sur 0 -- -- 91
2020-07-26 02:00:00 18.1 2 Nordeste 6 Sudoeste 0 -- -- 89
2020-07-26 01:00:00 18.7 5 Este 15 Sudeste 0 -- -- 88
2020-07-26 00:00:00 17.9 8 Sur 11 Sur 0 -- -- 90
2020-07-25 23:00:00 18.5 7 Sudeste 10 Sudeste 0 -- -- 88
2020-07-25 22:00:00 20.1 4 Sudeste 15 Nordeste 0 -- -- 82
2020-07-25 21:00:00 21.5 8 Nordeste 13 Nordeste 0 -- -- 76
2020-07-25 20:00:00 22.8 10 Este 16 Nordeste 0 -- -- 72
2020-07-25 19:00:00 22.4 10 Nordeste 17 Nordeste 0 -- -- 73
2020-07-25 18:00:00 22.4 9 Noroeste 18 Noroeste 0 -- -- 74
2020-07-25 17:00:00 23.2 8 Norte 21 Noroeste 0 -- -- 68
2020-07-25 16:00:00 23.3 13 Noroeste 19 Noroeste 0 -- -- 65
2020-07-25 15:00:00 23.1 9 Noroeste 17 Norte 0 -- -- 67
2020-07-25 14:00:00 22.9 6 Norte 18 Norte 0 -- -- 65
2020-07-25 13:00:00 23.1 6 Norte 15 Nordeste 0 -- -- 65
2020-07-25 12:00:00 22.4 10 Noroeste 18 Noroeste 0 -- -- 67
2020-07-25 11:00:00 20.8 6 Sudoeste 18 Sudoeste 0 -- -- 75
2020-07-25 10:00:00 19.1 9 Sudoeste 16 Sudoeste 0 -- -- 79
2020-07-25 09:00:00 17.9 5 Sur 13 Sur 0 -- -- 88
2020-07-25 08:00:00 16.8 9 Sur 13 Sur 0 -- -- 95
2020-07-25 07:00:00 16.5 5 Sur 8 Sur 0 -- -- 97
2020-07-25 06:00:00 16.4 4 Sur 8 Sur 0 -- -- 97
2020-07-25 05:00:00 16 6 Sur 11 Sur 0 -- -- 97
2020-07-25 04:00:00 15.2 8 Sur 10 Sudeste 0 -- -- 97
2020-07-25 03:00:00 15.3 6 Sur 10 Sur 0 -- -- 97
2020-07-25 02:00:00 15 5 Sur 6 Sur 0 -- -- 96
2020-07-25 01:00:00 15.5 3 Sur 8 Sur 0 -- -- 95
2020-07-25 00:00:00 16 4 Sur 6 Sur 0 -- -- 93
2020-07-24 23:00:00 17 4 Sur 5 Sur 0 -- -- 91
2020-07-24 22:00:00 18.2 2 Noroeste 9 Noroeste 0 -- -- 89
2020-07-24 21:00:00 19 6 Noroeste 13 Noroeste 0 -- -- 89
2020-07-24 20:00:00 20 5 Noroeste 17 Noroeste 0 -- -- 84
2020-07-24 19:00:00 21 7 Norte 14 Norte 0 -- -- 81
2020-07-24 18:00:00 21 8 Noroeste 19 Noroeste 0 -- -- 79
2020-07-24 17:00:00 21.6 9 Noroeste 18 Noroeste 0 -- -- 71
2020-07-24 16:00:00 21.3 10 Noroeste 21 Noroeste 0 -- -- 72
2020-07-24 15:00:00 22.1 9 Noroeste 17 Noroeste 0 -- -- 48
2020-07-24 14:00:00 22.1 9 Noroeste 15 Noroeste 0 -- -- 39
2020-07-24 13:00:00 21.5 7 Norte 15 Noroeste 0 -- -- 67
2020-07-24 12:00:00 21 8 Norte 15 Noroeste 0 -- -- 68
2020-07-24 11:00:00 19.8 7 Norte 13 Noroeste 0 -- -- 76
2020-07-24 10:00:00 19.2 5 Oeste 11 Noroeste 0 -- -- 80
2020-07-24 09:00:00 18.2 5 Oeste 11 Oeste 0 -- -- 86
2020-07-24 08:00:00 16.1 8 Oeste 12 Oeste 0 -- -- 94
2020-07-24 07:00:00 16 10 Oeste 14 Oeste 0 -- -- 95
2020-07-24 06:00:00 16.1 7 Oeste 9 Oeste 0 -- -- 96
2020-07-24 05:00:00 15.8 6 Oeste 8 Oeste 0 -- -- 95
2020-07-24 04:00:00 16.3 6 Oeste 11 Oeste 0 -- -- 94
2020-07-24 03:00:00 17.1 6 Oeste 8 Oeste 0 -- -- 95
2020-07-24 02:00:00 16.2 6 Oeste 10 Oeste 0 -- -- 95
2020-07-24 01:00:00 16.5 8 Oeste 10 Sudoeste 0 -- -- 94
2020-07-24 00:00:00 17.6 3 Oeste 10 Oeste 0 -- -- 91
2020-07-23 23:00:00 18.2 4 Sudoeste 9 Oeste 0 -- -- 91
2020-07-23 22:00:00 18.9 4 Oeste 10 Oeste 0 -- -- 90
2020-07-23 21:00:00 19.5 8 Oeste 12 Noroeste 0 -- -- 90
2020-07-23 20:00:00 20.1 7 Noroeste 15 Norte 0 -- -- 87
2020-07-23 19:00:00 20.9 8 Norte 17 Norte 0 -- -- 84
2020-07-23 18:00:00 22 10 Norte 19 Nordeste 0 -- -- 79
2020-07-23 17:00:00 22.7 10 Nordeste 19 Norte 0 -- -- 78
2020-07-23 16:00:00 22.8 8 Norte 16 Nordeste 0 -- -- 72
2020-07-23 15:00:00 22.6 6 Nordeste 13 Norte 0 -- -- 72
2020-07-23 14:00:00 21.5 4 Norte 15 Norte 0 -- -- 76
2020-07-23 13:00:00 20.8 7 Noroeste 15 Noroeste 0 -- -- 78
2020-07-23 12:00:00 20.8 4 Norte 9 Norte 0 -- -- 78
2020-07-23 11:00:00 20 5 Norte 9 Norte 0 -- -- 83
2020-07-23 10:00:00 19.4 3 Oeste 6 Oeste 0 -- -- 89
2020-07-23 09:00:00 18.8 0 Calma 8 Oeste 0 -- -- 95
2020-07-23 08:00:00 18.4 5 Oeste 9 Oeste 0 -- -- 96
2020-07-23 07:00:00 18.3 4 Oeste 8 Oeste 0 -- -- 96
2020-07-23 06:00:00 18.4 4 Oeste 7 Oeste 0 -- -- 96
2020-07-23 05:00:00 18.6 2 Oeste 5 Oeste 0 -- -- 96
2020-07-23 04:00:00 18.7 2 Oeste 5 Oeste 0 -- -- 95
2020-07-23 03:00:00 18.8 2 Oeste 4 Oeste 0 -- -- 94
2020-07-23 02:00:00 19.1 2 Oeste 5 Oeste 0 -- -- 94
2020-07-23 01:00:00 19 2 Oeste 4 Nordeste 0 -- -- 94
2020-07-23 00:00:00 19.2 0 Calma 5 Oeste 0 -- -- 93
2020-07-22 23:00:00 19.4 0 Calma 6 Nordeste 0 -- -- 93
2020-07-22 22:00:00 19.6 5 Nordeste 9 Nordeste 0 -- -- 92
2020-07-22 21:00:00 20.2 4 Norte 13 Norte 0 -- -- 91
2020-07-22 20:00:00 20.4 8 Noroeste 16 Noroeste 0 -- -- 90
2020-07-22 19:00:00 22 7 Nordeste 15 Norte 0 -- -- 83
2020-07-22 18:00:00 21.8 10 Noroeste 18 Noroeste 0 -- -- 81
2020-07-22 17:00:00 22.4 10 Noroeste 18 Nordeste 0 -- -- 79
2020-07-22 16:00:00 22.8 12 Nordeste 18 Nordeste 0 -- -- 75
2020-07-22 15:00:00 22.6 13 Nordeste 20 Nordeste 0 -- -- 75
2020-07-22 14:00:00 23.3 8 Norte 17 Norte 0 -- -- 72
2020-07-22 13:00:00 22.3 7 Norte 14 Nordeste 0 -- -- 76
2020-07-22 12:00:00 20.6 5 Nordeste 11 Nordeste 0 -- -- 83
2020-07-22 11:00:00 19.5 4 Oeste 9 Noroeste 0 -- -- 91
2020-07-22 10:00:00 18.9 3 Noroeste 6 Oeste 0 -- -- 94
2020-07-22 09:00:00 18.3 3 Oeste 6 Oeste 0 -- -- 97
2020-07-22 08:00:00 17.6 3 Oeste 5 Oeste 0 -- -- 97
2020-07-22 07:00:00 17.5 4 Oeste 8 Oeste 0 -- -- 97
2020-07-22 06:00:00 17.8 0 Calma 3 Oeste 0 -- -- 96
2020-07-22 05:00:00 17.9 0 Calma 5 Este 0 -- -- 96
2020-07-22 04:00:00 17.8 0 Calma 6 Oeste 0 -- -- 96
2020-07-22 03:00:00 17.7 3 Noroeste 6 Oeste 0 -- -- 96
2020-07-22 02:00:00 17.9 3 Noroeste 4 Noroeste 0 -- -- 95
2020-07-22 01:00:00 17.9 0 Calma 5 Este 0 -- -- 95
2020-07-22 00:00:00 17.9 0 Calma 5 Oeste 0 -- -- 95
2020-07-21 23:00:00 17.5 2 Oeste 9 Nordeste 0 -- -- 95
2020-07-21 22:00:00 17.8 7 Nordeste 16 Este 0 -- -- 93
2020-07-21 21:00:00 17.9 8 Este 15 Nordeste 0 -- -- 93
2020-07-21 20:00:00 18.2 8 Nordeste 18 Nordeste 0 -- -- 92
2020-07-21 19:00:00 18.5 10 Este 22 Nordeste 0 -- -- 91
2020-07-21 18:00:00 18.8 12 Nordeste 24 Nordeste 0 -- -- 90
2020-07-21 17:00:00 18.9 12 Nordeste 22 Este 0 -- -- 89
2020-07-21 16:00:00 19.1 12 Nordeste 26 Nordeste 0 -- -- 89
2020-07-21 15:00:00 20.1 13 Nordeste 24 Este 0 -- -- 85
2020-07-21 14:00:00 20.2 14 Nordeste 25 Nordeste 0 -- -- 83
2020-07-21 13:00:00 20.2 17 Nordeste 28 Nordeste 0 -- -- 83
2020-07-21 12:00:00 19.8 10 Nordeste 18 Nordeste 0 -- -- 84
2020-07-21 11:00:00 18.6 8 Nordeste 14 Este 0 -- -- 91
2020-07-21 10:00:00 17.9 4 Este 8 Este 0 -- -- 95
2020-07-21 09:00:00 17.2 3 Este 8 Este 0 -- -- 95
2020-07-21 08:00:00 17.4 5 Nordeste 10 Este 0 -- -- 93
2020-07-21 07:00:00 17.4 5 Este 14 Este 0 -- -- 91
2020-07-21 06:00:00 17.5 9 Este 20 Este 0 -- -- 90
2020-07-21 05:00:00 17.3 9 Este 14 Este 0 -- -- 92
2020-07-21 04:00:00 17.4 8 Este 15 Este 0 -- -- 93
2020-07-21 03:00:00 17.4 4 Este 9 Este 0 -- -- 94
2020-07-21 02:00:00 17.5 5 Este 11 Este 0 -- -- 94
2020-07-21 01:00:00 17.5 6 Este 20 Este 0 -- -- 94
2020-07-21 00:00:00 17.8 11 Este 23 Nordeste 0 -- -- 90
2020-07-20 23:00:00 17.4 9 Nordeste 30 Nordeste 0 -- -- 94
2020-07-20 22:00:00 17.7 6 Este 14 Nordeste 0 -- -- 93
2020-07-20 21:00:00 17.9 7 Este 19 Nordeste 0 -- -- 91
2020-07-20 20:00:00 18 6 Nordeste 15 Nordeste 0 -- -- 90
2020-07-20 19:00:00 18.2 6 Nordeste 14 Nordeste 0 -- -- 90
2020-07-20 18:00:00 18.6 6 Nordeste 14 Nordeste 0 -- -- 89
2020-07-20 17:00:00 18.9 9 Nordeste 19 Nordeste 0 -- -- 88
2020-07-20 16:00:00 19.6 11 Nordeste 20 Norte 0 -- -- 84
2020-07-20 15:00:00 19.7 10 Nordeste 22 Nordeste 0 -- -- 84
2020-07-20 14:00:00 19.7 11 Nordeste 20 Este 0 -- -- 82
2020-07-20 13:00:00 19.6 9 Nordeste 21 Nordeste 0 -- -- 82
2020-07-20 12:00:00 18.9 11 Nordeste 18 Nordeste 0 -- -- 86
2020-07-20 11:00:00 18.6 8 Nordeste 18 Nordeste 0 -- -- 88
2020-07-20 10:00:00 18.3 9 Nordeste 15 Este 0 -- -- 90
2020-07-20 09:00:00 17.9 4 Nordeste 15 Este 0 -- -- 92
2020-07-20 08:00:00 17.5 7 Este 17 Este 0 -- -- 94
2020-07-20 07:00:00 17.5 5 Este 12 Nordeste 0 -- -- 95
2020-07-20 06:00:00 17.5 5 Este 25 Nordeste 0 -- -- 94
2020-07-20 05:00:00 17.9 12 Nordeste 24 Nordeste 0 -- -- 94
2020-07-20 04:00:00 17.8 2 Noroeste 8 Norte 0 -- -- 94
2020-07-20 03:00:00 17.9 2 Nordeste 10 Nordeste 0 -- -- 95
2020-07-20 02:00:00 18 7 Este 15 Nordeste 0 -- -- 95
2020-07-20 01:00:00 17.9 6 Este 14 Nordeste 0 -- -- 95
2020-07-20 00:00:00 18.1 4 Nordeste 11 Nordeste 0 -- -- 95
2020-07-19 23:00:00 18.3 2 Nordeste 12 Norte 0 -- -- 95
2020-07-19 22:00:00 18.5 5 Norte 12 Norte 0 -- -- 95
2020-07-19 21:00:00 19.1 4 Norte 12 Norte 0 -- -- 93
2020-07-19 20:00:00 19.7 5 Norte 13 Norte 0 -- -- 92
2020-07-19 19:00:00 20.3 6 Norte 15 Norte 0 -- -- 89
2020-07-19 18:00:00 21.2 10 Nordeste 20 Este 0 -- -- 85
2020-07-19 17:00:00 21.3 15 Nordeste 25 Este 0 -- -- 85
2020-07-19 16:00:00 20.3 12 Nordeste 23 Nordeste 0 -- -- 90
2020-07-19 15:00:00 20 12 Nordeste 24 Nordeste 0 -- -- 91
2020-07-19 14:00:00 19 9 Nordeste 16 Nordeste 0 -- -- 96
2020-07-19 13:00:00 18.9 6 Norte 14 Norte 0 -- -- 97
2020-07-19 12:00:00 19.5 6 Noroeste 12 Noroeste 0 -- -- 98
2020-07-19 11:00:00 19.1 5 Noroeste 10 Noroeste 0 -- -- 98
2020-07-19 10:00:00 18.8 5 Oeste 15 Oeste 0.2 -- -- 99
2020-07-19 09:00:00 18.1 6 Oeste 13 Oeste 0.2 -- -- 99
2020-07-19 08:00:00 17.7 6 Oeste 9 Oeste 0 -- -- 98
2020-07-19 07:00:00 18.2 4 Oeste -- -- 0 -- -- 98
2020-07-19 06:00:00 18.1 2 Oeste 8 Oeste 0 -- -- 97
2020-07-19 05:00:00 18 5 Noroeste 14 Noroeste 0 -- -- 96
2020-07-19 04:00:00 18.3 4 Sudoeste 8 Oeste 0 -- -- 96
2020-07-19 03:00:00 18.3 3 Oeste 5 Oeste 0 -- -- 95
2020-07-19 02:00:00 18.3 0 Calma 5 Oeste 0 -- -- 95
2020-07-19 01:00:00 18.4 2 Noroeste 7 Noroeste 0 -- -- 95
2020-07-19 00:00:00 18.8 4 Noroeste 8 Noroeste 0 -- -- 94
2020-07-18 23:00:00 18.9 5 Noroeste 11 Noroeste 0 -- -- 94
2020-07-18 22:00:00 19 4 Noroeste 9 Noroeste 0 -- -- 94
2020-07-18 21:00:00 19.3 5 Noroeste 10 Norte 0 -- -- 93
2020-07-18 20:00:00 19.9 5 Noroeste 15 Norte 0 -- -- 90
2020-07-18 19:00:00 20.5 6 Norte 18 Nordeste 0 -- -- 87
2020-07-18 18:00:00 21.2 9 Nordeste 20 Norte 0 -- -- 85
2020-07-18 17:00:00 21.4 12 Nordeste 30 Nordeste 0 -- -- 84
2020-07-18 16:00:00 21.7 12 Nordeste 24 Este 0 -- -- 82
2020-07-18 15:00:00 21.3 8 Nordeste 21 Nordeste 0 -- -- 82
2020-07-18 14:00:00 21.9 12 Nordeste 25 Nordeste 0 -- -- 77
2020-07-18 13:00:00 22.1 11 Nordeste 17 Nordeste 0 -- -- 72
2020-07-18 12:00:00 21.1 6 Norte 12 Norte 0 -- -- 78
2020-07-18 11:00:00 19.8 5 Norte 9 Norte 0 -- -- 83
2020-07-18 10:00:00 19 4 Noroeste 8 Oeste 0 -- -- 90
2020-07-18 09:00:00 18.1 2 Este 6 Este 0 -- -- 96
2020-07-18 08:00:00 15.6 2 Sudoeste 11 Sur 0 -- -- 98
2020-07-18 07:00:00 14.2 8 Sudeste 10 Sur 0 -- -- 98
2020-07-18 06:00:00 14.6 5 Sudeste 9 Sudeste 0 -- -- 97
2020-07-18 05:00:00 15 7 Sur 8 Sudeste 0 -- -- 97
2020-07-18 04:00:00 15.6 5 Sur 10 Oeste 0 -- -- 97
2020-07-18 03:00:00 15.3 5 Oeste 14 Oeste 0 -- -- 97
2020-07-18 02:00:00 15.5 10 Oeste 15 Oeste 0 -- -- 96
2020-07-18 01:00:00 15.7 9 Oeste 14 Oeste 0 -- -- 96
2020-07-18 00:00:00 16.4 6 Oeste 16 Este 0 -- -- 91
2020-07-17 23:00:00 17.7 10 Este 23 Nordeste 0 -- -- 90
2020-07-17 22:00:00 18.3 14 Este 30 Este 0 -- -- 86
2020-07-17 21:00:00 19 19 Nordeste 36 Nordeste 0 -- -- 84
2020-07-17 20:00:00 19.9 15 Nordeste 30 Este 0 -- -- 81
2020-07-17 19:00:00 20 20 Nordeste 35 Este 0 -- -- 79
2020-07-17 18:00:00 20.8 21 Nordeste 40 Este 0 -- -- 75
2020-07-17 17:00:00 21.1 21 Nordeste 43 Nordeste 0 -- -- 73
2020-07-17 16:00:00 21.4 21 Nordeste 41 Este 0 -- -- 70
2020-07-17 15:00:00 21.5 21 Nordeste 42 Este 0 -- -- 69
2020-07-17 14:00:00 21.5 22 Nordeste 41 Nordeste 0 -- -- 70
2020-07-17 13:00:00 20.9 22 Nordeste 40 Este 0 -- -- 72
2020-07-17 12:00:00 20.2 22 Nordeste 35 Nordeste 0 -- -- 74
2020-07-17 11:00:00 20 15 Nordeste 24 Nordeste 0 -- -- 75
2020-07-17 10:00:00 19.1 14 Nordeste 27 Este 0 -- -- 77
2020-07-17 09:00:00 18.5 8 Nordeste 15 Este 0 -- -- 81
2020-07-17 08:00:00 16.9 0 Calma 13 Nordeste 0 -- -- 89
2020-07-17 07:00:00 16.3 9 Este 21 Nordeste 0 -- -- 90
2020-07-17 06:00:00 17 10 Nordeste 19 Este 0 -- -- 88
2020-07-17 05:00:00 17.1 10 Nordeste 19 Nordeste 0 -- -- 88
2020-07-17 04:00:00 17 8 Nordeste 17 Este 0 -- -- 90
2020-07-17 03:00:00 17.2 11 Este 21 Nordeste 0 -- -- 89
2020-07-17 02:00:00 17.3 12 Este 21 Nordeste 0 -- -- 90
2020-07-17 01:00:00 17.4 13 Este 25 Este 0 -- -- 89
2020-07-17 00:00:00 17.5 12 Este 21 Nordeste 0 -- -- 88
2020-07-16 23:00:00 17.4 11 Nordeste 21 Este 0 -- -- 89
2020-07-16 22:00:00 17.8 13 Nordeste 20 Nordeste 0 -- -- 87
2020-07-16 21:00:00 18.3 11 Nordeste 24 Este 0 -- -- 85
2020-07-16 20:00:00 19 14 Nordeste 30 Nordeste 0 -- -- 82
2020-07-16 19:00:00 20.2 15 Nordeste 29 Este 0 -- -- 78
2020-07-16 18:00:00 20.4 19 Nordeste 32 Nordeste 0 -- -- 76
2020-07-16 17:00:00 20.8 14 Nordeste 28 Nordeste 0 -- -- 73
2020-07-16 16:00:00 21.1 17 Nordeste 28 Nordeste 0 -- -- 71
2020-07-16 15:00:00 21 18 Nordeste 33 Nordeste 0 -- -- 69
2020-07-16 14:00:00 20.8 19 Nordeste 33 Este 0 -- -- 71
2020-07-16 13:00:00 20.6 15 Nordeste 29 Nordeste 0 -- -- 71
2020-07-16 12:00:00 19.9 14 Nordeste 25 Nordeste 0 -- -- 74
2020-07-16 11:00:00 18.3 14 Nordeste 22 Nordeste 0 -- -- 81
2020-07-16 10:00:00 17.8 12 Nordeste 18 Este 0 -- -- 85
2020-07-16 09:00:00 17.3 5 Este 13 Este 0 -- -- 87
2020-07-16 08:00:00 16.5 5 Este 9 Este 0 -- -- 93
2020-07-16 07:00:00 15.9 0 Calma 5 Noroeste 0 -- -- 93
2020-07-16 06:00:00 16 0 Calma 13 Este 0 -- -- 89
2020-07-16 05:00:00 16.7 9 Este 14 Nordeste 0 -- -- 85
2020-07-16 04:00:00 16.8 7 Nordeste 15 Nordeste 0 -- -- 84
2020-07-16 03:00:00 17 7 Nordeste 15 Nordeste 0 -- -- 84
2020-07-16 02:00:00 17.1 10 Este 16 Este 0 -- -- 84
2020-07-16 01:00:00 17.2 8 Nordeste 19 Nordeste 0 -- -- 83
2020-07-16 00:00:00 17.3 10 Nordeste 16 Norte 0 -- -- 83
2020-07-15 23:00:00 17.3 6 Nordeste 13 Este 0 -- -- 84
2020-07-15 22:00:00 17.5 9 Nordeste 16 Este 0 -- -- 80
2020-07-15 21:00:00 17.9 8 Nordeste 18 Nordeste 0 -- -- 79
2020-07-15 20:00:00 18.2 11 Nordeste 18 Nordeste 0 -- -- 79
2020-07-15 19:00:00 18.5 12 Nordeste 22 Nordeste 0 -- -- 79
2020-07-15 18:00:00 18.6 15 Nordeste 27 Nordeste 0 -- -- 80
2020-07-15 17:00:00 19.2 16 Nordeste 24 Nordeste 0 -- -- 78
2020-07-15 16:00:00 20 12 Nordeste 23 Nordeste 0 -- -- 74
2020-07-15 15:00:00 19.4 13 Nordeste 22 Nordeste 0 -- -- 78
2020-07-15 14:00:00 19.4 13 Nordeste 26 Nordeste 0 -- -- 76
2020-07-15 13:00:00 18.7 13 Nordeste 21 Nordeste 0 -- -- 78
2020-07-15 12:00:00 18.3 10 Nordeste 19 Norte 0 -- -- 83
2020-07-15 11:00:00 17.6 8 Nordeste 15 Nordeste 0 -- -- 91
2020-07-15 10:00:00 17.9 9 Nordeste 14 Este 0 -- -- 90
2020-07-15 09:00:00 17.1 6 Este 10 Este 0 -- -- 94
2020-07-15 08:00:00 16.7 5 Este 14 Este 0 -- -- 95
2020-07-15 07:00:00 16.4 8 Este 19 Este 0 -- -- 94
2020-07-15 06:00:00 15.9 8 Este 18 Este 0.2 -- -- 98
2020-07-15 05:00:00 16.2 8 Este 21 Este 0 -- -- 98
2020-07-15 04:00:00 16.3 12 Este 30 Nordeste 1.4 -- -- 98
2020-07-15 03:00:00 16.4 8 Nordeste 23 Nordeste 2 -- -- 98
2020-07-15 02:00:00 16.5 5 Nordeste 13 Nordeste 5 -- -- 97
2020-07-15 01:00:00 17.1 5 Norte 15 Este 1.8 -- -- 95
2020-07-15 00:00:00 17.5 11 Este 18 Este 1.6 -- -- 94
2020-07-14 23:00:00 18 8 Este 15 Este 0 -- -- 90
2020-07-14 22:00:00 18.6 7 Nordeste 15 Nordeste 0 -- -- 84
2020-07-14 21:00:00 19 8 Nordeste 18 Nordeste 0 -- -- 82
2020-07-14 20:00:00 19.2 12 Nordeste 21 Nordeste 0 -- -- 81
2020-07-14 19:00:00 20.2 10 Norte 19 Norte 0 -- -- 76
2020-07-14 18:00:00 20.7 11 Nordeste 21 Norte 0 -- -- 71
2020-07-14 17:00:00 21.1 7 Norte 21 Norte 0 -- -- 71
2020-07-14 16:00:00 20.9 9 Norte 20 Nordeste 0 -- -- 74
2020-07-14 15:00:00 20.7 10 Norte 21 Norte 0 -- -- 73
2020-07-14 14:00:00 20.7 10 Norte 23 Nordeste 0 -- -- 76
2020-07-14 13:00:00 20.6 12 Norte 23 Norte 0 -- -- 76
2020-07-14 12:00:00 20.5 12 Norte 21 Nordeste 0 -- -- 78
2020-07-14 11:00:00 20.3 12 Nordeste 20 Nordeste 0 -- -- 79
2020-07-14 10:00:00 19.4 9 Nordeste 15 Norte 0 -- -- 84
2020-07-14 09:00:00 17.7 0 Calma 5 Sudeste 0 -- -- 97
2020-07-14 08:00:00 16.8 3 Sudeste 6 Nordeste 0 -- -- 97
2020-07-14 07:00:00 16.8 0 Calma 5 Oeste 0 -- -- 98
2020-07-14 06:00:00 16.8 3 Noroeste 4 Oeste 0 -- -- 97
2020-07-14 05:00:00 17.2 0 Calma 3 Noroeste 0 -- -- 97
2020-07-14 04:00:00 17.6 0 Calma 5 Nordeste 0 -- -- 96
2020-07-14 03:00:00 17.6 0 Calma 8 Noroeste 0 -- -- 97
2020-07-14 02:00:00 17.9 4 Noroeste 8 Oeste 0 -- -- 97
2020-07-14 01:00:00 17.7 4 Oeste 6 Oeste 0 -- -- 96
2020-07-14 00:00:00 17.7 3 Oeste 6 Oeste 0 -- -- 95
2020-07-13 23:00:00 18.4 3 Nordeste 8 Nordeste 0 -- -- 94
2020-07-13 22:00:00 18.6 3 Nordeste 9 Noroeste 0 -- -- 92
2020-07-13 21:00:00 19.4 4 Norte 14 Norte 0 -- -- 89
2020-07-13 20:00:00 19.9 6 Norte 16 Nordeste 0 -- -- 87
2020-07-13 19:00:00 20.5 8 Norte 19 Norte 0 -- -- 87
2020-07-13 18:00:00 20.5 12 Nordeste 21 Nordeste 0 -- -- 85
2020-07-13 17:00:00 20.8 11 Norte 22 Nordeste 0 -- -- 84
2020-07-13 16:00:00 21.3 10 Norte 23 Nordeste 0 -- -- 82
2020-07-13 15:00:00 21.2 10 Norte 22 Nordeste 0 -- -- 81
2020-07-13 14:00:00 21.5 11 Nordeste 24 Nordeste 0 -- -- 79
2020-07-13 13:00:00 21.4 9 Norte 21 Nordeste 0 -- -- 80
2020-07-13 12:00:00 20.9 14 Nordeste 25 Nordeste 0 -- -- 80
2020-07-13 11:00:00 20.3 10 Nordeste 24 Este 0 -- -- 83
2020-07-13 10:00:00 19.5 13 Este 23 Este 0 -- -- 86
2020-07-13 09:00:00 18.2 7 Nordeste 12 Este 0 -- -- 93
2020-07-13 08:00:00 16.4 2 Sur 8 Sudeste 0 -- -- 97
2020-07-13 07:00:00 14.8 2 Sudoeste 5 Oeste 0 -- -- 96
2020-07-13 06:00:00 15.6 3 Sudeste 6 Sudeste 0 -- -- 96
2020-07-13 05:00:00 16 3 Este 9 Nordeste 0 -- -- 95
2020-07-13 04:00:00 16.7 4 Este 8 Nordeste 0 -- -- 95
2020-07-13 03:00:00 16.9 4 Este 10 Este 0 -- -- 94
2020-07-13 02:00:00 17.2 6 Este 12 Este 0 -- -- 94
2020-07-13 01:00:00 17.1 3 Este 11 Este 0 -- -- 95
2020-07-13 00:00:00 16.9 5 Este 11 Este 0 -- -- 95